sensor_id;sensor_type;location;lat;lon;timestamp;temperature;humidity
22714;DHT22;11524;50.846;4.326;2022-10-19T00:01:06;21.50;60.10
22714;DHT22;11524;50.846;4.326;2022-10-19T00:03:33;21.50;59.90
22714;DHT22;11524;50.846;4.326;2022-10-19T00:05:59;21.50;60.20
22714;DHT22;11524;50.846;4.326;2022-10-19T00:08:25;21.50;59.90
22714;DHT22;11524;50.846;4.326;2022-10-19T00:10:51;21.50;60.00
22714;DHT22;11524;50.846;4.326;2022-10-19T00:13:17;21.40;60.10
22714;DHT22;11524;50.846;4.326;2022-10-19T00:15:42;21.40;59.90
22714;DHT22;11524;50.846;4.326;2022-10-19T00:18:09;21.40;60.60
22714;DHT22;11524;50.846;4.326;2022-10-19T00:20:35;21.40;60.40
22714;DHT22;11524;50.846;4.326;2022-10-19T00:23:01;21.50;60.60
22714;DHT22;11524;50.846;4.326;2022-10-19T00:25:27;21.40;60.10
22714;DHT22;11524;50.846;4.326;2022-10-19T00:27:52;21.40;60.50
22714;DHT22;11524;50.846;4.326;2022-10-19T00:30:18;21.40;60.40
22714;DHT22;11524;50.846;4.326;2022-10-19T00:32:43;21.40;60.30
22714;DHT22;11524;50.846;4.326;2022-10-19T00:35:09;21.40;60.90
22714;DHT22;11524;50.846;4.326;2022-10-19T00:37:35;21.40;61.00
22714;DHT22;11524;50.846;4.326;2022-10-19T00:40:00;21.40;60.40
22714;DHT22;11524;50.846;4.326;2022-10-19T00:42:26;21.40;60.40
22714;DHT22;11524;50.846;4.326;2022-10-19T00:44:59;21.40;61.10
22714;DHT22;11524;50.846;4.326;2022-10-19T00:47:25;21.40;61.00
22714;DHT22;11524;50.846;4.326;2022-10-19T00:49:51;21.30;60.90
22714;DHT22;11524;50.846;4.326;2022-10-19T00:52:19;21.30;60.70
22714;DHT22;11524;50.846;4.326;2022-10-19T00:54:48;21.40;60.90
22714;DHT22;11524;50.846;4.326;2022-10-19T00:57:15;21.40;61.20
22714;DHT22;11524;50.846;4.326;2022-10-19T00:59:42;21.30;61.00
22714;DHT22;11524;50.846;4.326;2022-10-19T01:02:08;21.30;61.10
22714;DHT22;11524;50.846;4.326;2022-10-19T01:04:38;21.30;60.90
22714;DHT22;11524;50.846;4.326;2022-10-19T01:07:05;21.30;60.70
22714;DHT22;11524;50.846;4.326;2022-10-19T01:09:32;21.30;60.70
22714;DHT22;11524;50.846;4.326;2022-10-19T01:12:02;21.30;60.80
22714;DHT22;11524;50.846;4.326;2022-10-19T01:15:02;21.30;61.20
22714;DHT22;11524;50.846;4.326;2022-10-19T01:20:19;21.30;61.40
22714;DHT22;11524;50.846;4.326;2022-10-19T01:25:25;21.20;61.30
22714;DHT22;11524;50.846;4.326;2022-10-19T01:30:52;21.20;61.40
22714;DHT22;11524;50.846;4.326;2022-10-19T01:33:32;21.20;61.10
22714;DHT22;11524;50.846;4.326;2022-10-19T01:38:59;21.20;61.60
22714;DHT22;11524;50.846;4.326;2022-10-19T01:41:35;21.20;61.60
22714;DHT22;11524;50.846;4.326;2022-10-19T01:46:48;21.20;69.70
22714;DHT22;11524;50.846;4.326;2022-10-19T01:49:27;21.20;67.70
22714;DHT22;11524;50.846;4.326;2022-10-19T01:51:59;21.30;68.00
22714;DHT22;11524;50.846;4.326;2022-10-19T01:54:28;21.30;68.90
22714;DHT22;11524;50.846;4.326;2022-10-19T01:56:57;21.30;70.40
22714;DHT22;11524;50.846;4.326;2022-10-19T01:59:26;21.30;69.10
22714;DHT22;11524;50.846;4.326;2022-10-19T02:01:53;21.30;69.90
22714;DHT22;11524;50.846;4.326;2022-10-19T02:04:21;21.30;69.30
22714;DHT22;11524;50.846;4.326;2022-10-19T02:06:49;21.30;69.30
22714;DHT22;11524;50.846;4.326;2022-10-19T02:09:16;21.30;69.60
22714;DHT22;11524;50.846;4.326;2022-10-19T02:11:55;21.30;70.50
22714;DHT22;11524;50.846;4.326;2022-10-19T02:14:24;21.30;64.50
22714;DHT22;11524;50.846;4.326;2022-10-19T02:16:59;21.30;62.20
22714;DHT22;11524;50.846;4.326;2022-10-19T02:19:26;21.20;62.20
22714;DHT22;11524;50.846;4.326;2022-10-19T02:21:51;21.20;62.00
22714;DHT22;11524;50.846;4.326;2022-10-19T02:24:18;21.20;61.80
22714;DHT22;11524;50.846;4.326;2022-10-19T02:26:44;21.20;61.90
22714;DHT22;11524;50.846;4.326;2022-10-19T02:29:10;21.20;61.40
22714;DHT22;11524;50.846;4.326;2022-10-19T02:31:38;21.20;61.60
22714;DHT22;11524;50.846;4.326;2022-10-19T02:34:04;21.10;61.30
22714;DHT22;11524;50.846;4.326;2022-10-19T02:36:30;21.10;61.60
22714;DHT22;11524;50.846;4.326;2022-10-19T02:38:56;21.10;62.00
22714;DHT22;11524;50.846;4.326;2022-10-19T02:42:10;21.10;62.00
22714;DHT22;11524;50.846;4.326;2022-10-19T02:45:01;21.10;61.50
22714;DHT22;11524;50.846;4.326;2022-10-19T02:47:34;21.10;61.30
22714;DHT22;11524;50.846;4.326;2022-10-19T02:50:05;21.00;61.00
22714;DHT22;11524;50.846;4.326;2022-10-19T02:52:30;21.10;61.30
22714;DHT22;11524;50.846;4.326;2022-10-19T02:54:56;21.00;61.90
22714;DHT22;11524;50.846;4.326;2022-10-19T02:57:24;21.00;61.70
22714;DHT22;11524;50.846;4.326;2022-10-19T02:59:50;21.00;61.10
22714;DHT22;11524;50.846;4.326;2022-10-19T03:02:17;21.00;61.50
22714;DHT22;11524;50.846;4.326;2022-10-19T03:04:44;21.00;61.60
22714;DHT22;11524;50.846;4.326;2022-10-19T03:07:11;21.00;61.60
22714;DHT22;11524;50.846;4.326;2022-10-19T03:09:37;21.00;61.40
22714;DHT22;11524;50.846;4.326;2022-10-19T03:12:03;21.00;61.60
22714;DHT22;11524;50.846;4.326;2022-10-19T03:14:28;21.00;61.80
22714;DHT22;11524;50.846;4.326;2022-10-19T03:16:54;21.00;61.20
22714;DHT22;11524;50.846;4.326;2022-10-19T03:19:19;21.00;61.90
22714;DHT22;11524;50.846;4.326;2022-10-19T03:21:45;21.00;61.30
22714;DHT22;11524;50.846;4.326;2022-10-19T03:24:11;21.00;61.30
22714;DHT22;11524;50.846;4.326;2022-10-19T03:26:37;20.90;61.10
22714;DHT22;11524;50.846;4.326;2022-10-19T03:29:02;21.00;61.60
22714;DHT22;11524;50.846;4.326;2022-10-19T03:31:28;20.90;61.70
22714;DHT22;11524;50.846;4.326;2022-10-19T03:33:53;20.90;61.80
22714;DHT22;11524;50.846;4.326;2022-10-19T03:36:28;20.90;61.80
22714;DHT22;11524;50.846;4.326;2022-10-19T03:39:09;20.90;61.60
22714;DHT22;11524;50.846;4.326;2022-10-19T03:41:36;20.90;61.50
22714;DHT22;11524;50.846;4.326;2022-10-19T03:44:03;20.90;61.60
22714;DHT22;11524;50.846;4.326;2022-10-19T03:46:29;20.90;61.80
22714;DHT22;11524;50.846;4.326;2022-10-19T03:48:55;20.80;61.70
22714;DHT22;11524;50.846;4.326;2022-10-19T03:51:23;20.90;62.50
22714;DHT22;11524;50.846;4.326;2022-10-19T03:53:58;20.80;62.10
22714;DHT22;11524;50.846;4.326;2022-10-19T03:56:29;20.80;62.10
22714;DHT22;11524;50.846;4.326;2022-10-19T03:58:56;20.80;62.50
22714;DHT22;11524;50.846;4.326;2022-10-19T04:01:27;20.80;61.80
22714;DHT22;11524;50.846;4.326;2022-10-19T04:03:58;20.80;62.20
22714;DHT22;11524;50.846;4.326;2022-10-19T04:06:32;20.80;61.70
22714;DHT22;11524;50.846;4.326;2022-10-19T04:08:58;20.80;61.90
22714;DHT22;11524;50.846;4.326;2022-10-19T04:11:26;20.80;61.60
22714;DHT22;11524;50.846;4.326;2022-10-19T04:13:53;20.80;62.50
22714;DHT22;11524;50.846;4.326;2022-10-19T04:16:20;20.80;61.80
22714;DHT22;11524;50.846;4.326;2022-10-19T04:18:47;20.70;62.10
22714;DHT22;11524;50.846;4.326;2022-10-19T04:21:30;20.70;61.50
22714;DHT22;11524;50.846;4.326;2022-10-19T04:24:00;20.70;62.30
22714;DHT22;11524;50.846;4.326;2022-10-19T04:26:27;20.70;61.00
22714;DHT22;11524;50.846;4.326;2022-10-19T04:28:52;20.80;61.60
22714;DHT22;11524;50.846;4.326;2022-10-19T04:31:18;20.70;61.70
22714;DHT22;11524;50.846;4.326;2022-10-19T04:33:44;20.70;61.70
22714;DHT22;11524;50.846;4.326;2022-10-19T04:36:11;20.70;61.40
22714;DHT22;11524;50.846;4.326;2022-10-19T04:38:37;20.70;61.90
22714;DHT22;11524;50.846;4.326;2022-10-19T04:41:08;20.80;61.80
22714;DHT22;11524;50.846;4.326;2022-10-19T04:43:35;20.70;61.40
22714;DHT22;11524;50.846;4.326;2022-10-19T04:46:10;20.70;62.20
22714;DHT22;11524;50.846;4.326;2022-10-19T04:48:37;20.70;61.60
22714;DHT22;11524;50.846;4.326;2022-10-19T04:51:04;20.60;61.80
22714;DHT22;11524;50.846;4.326;2022-10-19T04:53:30;20.60;61.70
22714;DHT22;11524;50.846;4.326;2022-10-19T04:55:56;20.60;62.00
22714;DHT22;11524;50.846;4.326;2022-10-19T04:58:22;20.60;61.90
22714;DHT22;11524;50.846;4.326;2022-10-19T05:00:48;20.60;61.80
22714;DHT22;11524;50.846;4.326;2022-10-19T05:03:13;20.60;62.70
22714;DHT22;11524;50.846;4.326;2022-10-19T05:05:39;20.60;61.20
22714;DHT22;11524;50.846;4.326;2022-10-19T05:08:07;20.60;61.40
22714;DHT22;11524;50.846;4.326;2022-10-19T05:10:33;20.60;61.60
22714;DHT22;11524;50.846;4.326;2022-10-19T05:12:59;20.60;61.60
22714;DHT22;11524;50.846;4.326;2022-10-19T05:15:27;20.60;61.90
22714;DHT22;11524;50.846;4.326;2022-10-19T05:17:53;20.60;61.10
22714;DHT22;11524;50.846;4.326;2022-10-19T05:20:19;20.60;60.80
22714;DHT22;11524;50.846;4.326;2022-10-19T05:22:45;20.60;61.10
22714;DHT22;11524;50.846;4.326;2022-10-19T05:25:11;20.60;61.30
22714;DHT22;11524;50.846;4.326;2022-10-19T05:27:36;20.60;61.30
22714;DHT22;11524;50.846;4.326;2022-10-19T05:30:02;20.60;66.00
22714;DHT22;11524;50.846;4.326;2022-10-19T05:32:28;20.60;66.40
22714;DHT22;11524;50.846;4.326;2022-10-19T05:34:54;20.70;66.00
22714;DHT22;11524;50.846;4.326;2022-10-19T05:37:19;20.70;60.40
22714;DHT22;11524;50.846;4.326;2022-10-19T05:39:46;20.70;60.00
22714;DHT22;11524;50.846;4.326;2022-10-19T05:42:11;20.60;59.80
22714;DHT22;11524;50.846;4.326;2022-10-19T05:44:37;20.60;59.90
22714;DHT22;11524;50.846;4.326;2022-10-19T05:47:03;20.50;59.20
22714;DHT22;11524;50.846;4.326;2022-10-19T05:49:28;20.50;59.20
22714;DHT22;11524;50.846;4.326;2022-10-19T05:51:54;20.50;58.80
22714;DHT22;11524;50.846;4.326;2022-10-19T05:54:20;20.50;58.90
22714;DHT22;11524;50.846;4.326;2022-10-19T05:56:45;20.50;59.10
22714;DHT22;11524;50.846;4.326;2022-10-19T05:59:15;20.50;59.30
22714;DHT22;11524;50.846;4.326;2022-10-19T06:01:41;20.50;59.20
22714;DHT22;11524;50.846;4.326;2022-10-19T06:04:06;20.50;65.10
22714;DHT22;11524;50.846;4.326;2022-10-19T06:06:32;20.50;63.70
22714;DHT22;11524;50.846;4.326;2022-10-19T06:08:59;20.60;63.90
22714;DHT22;11524;50.846;4.326;2022-10-19T06:11:30;20.70;63.90
22714;DHT22;11524;50.846;4.326;2022-10-19T06:13:59;20.70;62.90
22714;DHT22;11524;50.846;4.326;2022-10-19T06:16:25;20.80;62.70
22714;DHT22;11524;50.846;4.326;2022-10-19T06:18:52;20.90;62.60
22714;DHT22;11524;50.846;4.326;2022-10-19T06:21:20;20.70;58.70
22714;DHT22;11524;50.846;4.326;2022-10-19T06:23:57;20.00;59.20
22714;DHT22;11524;50.846;4.326;2022-10-19T06:26:23;19.70;59.20
22714;DHT22;11524;50.846;4.326;2022-10-19T06:28:50;19.40;59.60
22714;DHT22;11524;50.846;4.326;2022-10-19T06:31:18;19.20;59.40
22714;DHT22;11524;50.846;4.326;2022-10-19T06:33:44;19.00;60.50
22714;DHT22;11524;50.846;4.326;2022-10-19T06:36:17;18.90;60.50
22714;DHT22;11524;50.846;4.326;2022-10-19T06:38:43;18.80;60.30
22714;DHT22;11524;50.846;4.326;2022-10-19T06:41:10;18.90;60.50
22714;DHT22;11524;50.846;4.326;2022-10-19T06:43:36;18.70;60.70
22714;DHT22;11524;50.846;4.326;2022-10-19T06:46:10;18.70;61.00
22714;DHT22;11524;50.846;4.326;2022-10-19T06:48:36;18.60;60.60
22714;DHT22;11524;50.846;4.326;2022-10-19T06:51:04;18.60;61.20
22714;DHT22;11524;50.846;4.326;2022-10-19T06:53:30;18.50;61.00
22714;DHT22;11524;50.846;4.326;2022-10-19T06:55:59;18.50;61.00
22714;DHT22;11524;50.846;4.326;2022-10-19T06:58:25;18.40;61.10
22714;DHT22;11524;50.846;4.326;2022-10-19T07:00:55;18.50;61.30
22714;DHT22;11524;50.846;4.326;2022-10-19T07:03:22;18.40;61.90
22714;DHT22;11524;50.846;4.326;2022-10-19T07:05:56;18.40;61.50
22714;DHT22;11524;50.846;4.326;2022-10-19T07:08:22;18.40;61.80
22714;DHT22;11524;50.846;4.326;2022-10-19T07:10:53;18.40;61.30
22714;DHT22;11524;50.846;4.326;2022-10-19T07:13:19;18.40;61.10
22714;DHT22;11524;50.846;4.326;2022-10-19T07:15:45;18.40;61.40
22714;DHT22;11524;50.846;4.326;2022-10-19T07:18:11;18.40;61.00
22714;DHT22;11524;50.846;4.326;2022-10-19T07:20:37;18.40;61.20
22714;DHT22;11524;50.846;4.326;2022-10-19T07:23:02;18.40;61.80
22714;DHT22;11524;50.846;4.326;2022-10-19T07:25:29;18.80;62.40
22714;DHT22;11524;50.846;4.326;2022-10-19T07:27:55;19.10;62.00
22714;DHT22;11524;50.846;4.326;2022-10-19T07:30:21;19.50;61.10
22714;DHT22;11524;50.846;4.326;2022-10-19T07:32:47;19.80;60.30
22714;DHT22;11524;50.846;4.326;2022-10-19T07:35:13;20.10;59.70
22714;DHT22;11524;50.846;4.326;2022-10-19T07:37:39;20.30;59.10
22714;DHT22;11524;50.846;4.326;2022-10-19T07:40:05;20.40;56.40
22714;DHT22;11524;50.846;4.326;2022-10-19T07:42:31;20.60;55.40
22714;DHT22;11524;50.846;4.326;2022-10-19T07:44:56;20.70;55.00
22714;DHT22;11524;50.846;4.326;2022-10-19T07:47:22;20.80;54.30
22714;DHT22;11524;50.846;4.326;2022-10-19T07:49:47;20.90;53.90
22714;DHT22;11524;50.846;4.326;2022-10-19T07:52:13;21.00;53.90
22714;DHT22;11524;50.846;4.326;2022-10-19T07:54:38;21.10;53.70
22714;DHT22;11524;50.846;4.326;2022-10-19T07:57:04;21.20;53.40
22714;DHT22;11524;50.846;4.326;2022-10-19T07:59:30;21.20;53.20
22714;DHT22;11524;50.846;4.326;2022-10-19T08:01:55;21.30;52.90
22714;DHT22;11524;50.846;4.326;2022-10-19T08:04:22;21.40;52.90
22714;DHT22;11524;50.846;4.326;2022-10-19T08:06:48;21.40;52.80
22714;DHT22;11524;50.846;4.326;2022-10-19T08:09:14;21.40;52.80
22714;DHT22;11524;50.846;4.326;2022-10-19T08:11:40;21.50;52.90
22714;DHT22;11524;50.846;4.326;2022-10-19T08:14:05;21.60;52.70
22714;DHT22;11524;50.846;4.326;2022-10-19T08:16:36;21.60;52.60
22714;DHT22;11524;50.846;4.326;2022-10-19T08:19:13;21.60;52.50
22714;DHT22;11524;50.846;4.326;2022-10-19T08:21:43;21.70;52.40
22714;DHT22;11524;50.846;4.326;2022-10-19T08:24:10;21.70;52.50
22714;DHT22;11524;50.846;4.326;2022-10-19T08:26:37;21.80;52.60
22714;DHT22;11524;50.846;4.326;2022-10-19T08:29:15;21.80;52.40
22714;DHT22;11524;50.846;4.326;2022-10-19T08:31:43;21.80;52.50
22714;DHT22;11524;50.846;4.326;2022-10-19T08:34:10;21.90;52.20
22714;DHT22;11524;50.846;4.326;2022-10-19T08:36:36;21.90;52.50
22714;DHT22;11524;50.846;4.326;2022-10-19T08:39:04;21.90;52.60
22714;DHT22;11524;50.846;4.326;2022-10-19T08:50:20;22.10;52.10
22714;DHT22;11524;50.846;4.326;2022-10-19T08:53:01;22.10;52.10
22714;DHT22;11524;50.846;4.326;2022-10-19T09:01:39;22.10;51.80
22714;DHT22;11524;50.846;4.326;2022-10-19T09:04:21;22.10;52.00
22714;DHT22;11524;50.846;4.326;2022-10-19T09:06:58;22.20;52.10
22714;DHT22;11524;50.846;4.326;2022-10-19T09:09:29;22.20;52.00
22714;DHT22;11524;50.846;4.326;2022-10-19T09:12:03;22.20;52.00
22714;DHT22;11524;50.846;4.326;2022-10-19T09:14:33;22.20;51.90
22714;DHT22;11524;50.846;4.326;2022-10-19T09:17:04;22.20;51.90
22714;DHT22;11524;50.846;4.326;2022-10-19T09:19:33;22.20;52.00
22714;DHT22;11524;50.846;4.326;2022-10-19T09:24:50;22.20;52.00
22714;DHT22;11524;50.846;4.326;2022-10-19T09:27:25;22.20;52.20
22714;DHT22;11524;50.846;4.326;2022-10-19T09:32:35;22.30;52.20
22714;DHT22;11524;50.846;4.326;2022-10-19T09:35:13;22.30;52.20
22714;DHT22;11524;50.846;4.326;2022-10-19T09:37:45;22.30;52.20
22714;DHT22;11524;50.846;4.326;2022-10-19T09:40:18;22.30;52.20
22714;DHT22;11524;50.846;4.326;2022-10-19T09:42:43;22.30;52.30
22714;DHT22;11524;50.846;4.326;2022-10-19T09:45:19;22.30;52.10
22714;DHT22;11524;50.846;4.326;2022-10-19T09:47:48;22.30;52.20
22714;DHT22;11524;50.846;4.326;2022-10-19T09:50:18;22.30;52.20
22714;DHT22;11524;50.846;4.326;2022-10-19T09:52:48;22.30;52.20
22714;DHT22;11524;50.846;4.326;2022-10-19T09:58:01;22.40;52.40
22714;DHT22;11524;50.846;4.326;2022-10-19T10:00:36;22.30;52.30
22714;DHT22;11524;50.846;4.326;2022-10-19T10:03:03;22.40;52.40
22714;DHT22;11524;50.846;4.326;2022-10-19T10:05:38;22.40;52.70
22714;DHT22;11524;50.846;4.326;2022-10-19T10:08:12;22.40;52.90
22714;DHT22;11524;50.846;4.326;2022-10-19T10:10:43;22.40;53.20
22714;DHT22;11524;50.846;4.326;2022-10-19T10:13:18;22.40;52.50
22714;DHT22;11524;50.846;4.326;2022-10-19T10:15:54;22.40;52.40
22714;DHT22;11524;50.846;4.326;2022-10-19T10:18:22;22.40;52.50
22714;DHT22;11524;50.846;4.326;2022-10-19T10:20:56;22.50;52.70
22714;DHT22;11524;50.846;4.326;2022-10-19T10:23:25;22.40;52.60
22714;DHT22;11524;50.846;4.326;2022-10-19T10:25:55;22.40;52.70
22714;DHT22;11524;50.846;4.326;2022-10-19T10:28:24;22.40;52.70
22714;DHT22;11524;50.846;4.326;2022-10-19T10:31:08;22.40;52.90
22714;DHT22;11524;50.846;4.326;2022-10-19T10:33:37;22.40;53.00
22714;DHT22;11524;50.846;4.326;2022-10-19T10:36:10;22.40;52.90
22714;DHT22;11524;50.846;4.326;2022-10-19T10:38:51;22.40;52.90
22714;DHT22;11524;50.846;4.326;2022-10-19T10:41:21;22.40;52.90
22714;DHT22;11524;50.846;4.326;2022-10-19T10:43:54;22.40;53.00
22714;DHT22;11524;50.846;4.326;2022-10-19T10:46:24;22.50;53.20
22714;DHT22;11524;50.846;4.326;2022-10-19T10:49:07;22.50;53.20
22714;DHT22;11524;50.846;4.326;2022-10-19T10:51:43;22.50;53.30
22714;DHT22;11524;50.846;4.326;2022-10-19T10:54:24;22.50;53.10
22714;DHT22;11524;50.846;4.326;2022-10-19T10:57:09;22.50;53.40
22714;DHT22;11524;50.846;4.326;2022-10-19T10:59:58;22.50;53.50
22714;DHT22;11524;50.846;4.326;2022-10-19T11:02:42;22.50;53.40
22714;DHT22;11524;50.846;4.326;2022-10-19T11:05:24;22.50;53.40
22714;DHT22;11524;50.846;4.326;2022-10-19T11:10:50;22.50;53.50
22714;DHT22;11524;50.846;4.326;2022-10-19T11:16:15;22.50;53.80
22714;DHT22;11524;50.846;4.326;2022-10-19T11:18:54;22.50;53.90
22714;DHT22;11524;50.846;4.326;2022-10-19T11:30:30;22.60;53.80
22714;DHT22;11524;50.846;4.326;2022-10-19T11:35:33;22.60;54.00
22714;DHT22;11524;50.846;4.326;2022-10-19T11:52:31;22.60;54.10
22714;DHT22;11524;50.846;4.326;2022-10-19T11:55:12;22.60;54.30
22714;DHT22;11524;50.846;4.326;2022-10-19T12:00:37;22.70;54.40
22714;DHT22;11524;50.846;4.326;2022-10-19T12:03:31;22.70;54.30
22714;DHT22;11524;50.846;4.326;2022-10-19T12:14:29;22.70;54.40
22714;DHT22;11524;50.846;4.326;2022-10-19T12:17:01;22.80;54.90
22714;DHT22;11524;50.846;4.326;2022-10-19T12:19:37;22.80;54.40
22714;DHT22;11524;50.846;4.326;2022-10-19T12:22:06;22.80;54.40
22714;DHT22;11524;50.846;4.326;2022-10-19T12:24:35;22.80;54.50
22714;DHT22;11524;50.846;4.326;2022-10-19T12:27:01;22.80;54.30
22714;DHT22;11524;50.846;4.326;2022-10-19T12:29:32;22.80;54.40
22714;DHT22;11524;50.846;4.326;2022-10-19T12:32:02;22.80;54.50
22714;DHT22;11524;50.846;4.326;2022-10-19T12:37:34;22.90;54.50
22714;DHT22;11524;50.846;4.326;2022-10-19T12:40:10;22.90;54.60
22714;DHT22;11524;50.846;4.326;2022-10-19T12:53:30;22.90;54.70
22714;DHT22;11524;50.846;4.326;2022-10-19T12:56:25;22.90;54.80
22714;DHT22;11524;50.846;4.326;2022-10-19T12:58:57;22.90;54.80
22714;DHT22;11524;50.846;4.326;2022-10-19T13:01:28;22.90;54.90
22714;DHT22;11524;50.846;4.326;2022-10-19T13:04:34;23.00;55.10
22714;DHT22;11524;50.846;4.326;2022-10-19T13:07:01;23.00;55.20
22714;DHT22;11524;50.846;4.326;2022-10-19T13:14:52;23.00;55.30
22714;DHT22;11524;50.846;4.326;2022-10-19T13:22:46;23.10;55.40
22714;DHT22;11524;50.846;4.326;2022-10-19T13:25:23;23.20;55.40
22714;DHT22;11524;50.846;4.326;2022-10-19T13:38:28;23.30;55.50
22714;DHT22;11524;50.846;4.326;2022-10-19T13:49:31;23.30;55.00
22714;DHT22;11524;50.846;4.326;2022-10-19T14:04:00;23.40;56.00
22714;DHT22;11524;50.846;4.326;2022-10-19T14:12:23;23.30;55.50
22714;DHT22;11524;50.846;4.326;2022-10-19T14:14:48;23.30;55.40
22714;DHT22;11524;50.846;4.326;2022-10-19T14:17:26;23.30;55.50
22714;DHT22;11524;50.846;4.326;2022-10-19T14:19:56;23.30;55.50
22714;DHT22;11524;50.846;4.326;2022-10-19T14:22:29;23.30;56.10
22714;DHT22;11524;50.846;4.326;2022-10-19T14:25:18;23.20;55.40
22714;DHT22;11524;50.846;4.326;2022-10-19T14:27:45;23.20;55.50
22714;DHT22;11524;50.846;4.326;2022-10-19T14:30:22;23.20;55.40
22714;DHT22;11524;50.846;4.326;2022-10-19T14:32:48;23.20;55.40
22714;DHT22;11524;50.846;4.326;2022-10-19T14:35:28;23.30;55.40
22714;DHT22;11524;50.846;4.326;2022-10-19T14:37:55;23.20;55.50
22714;DHT22;11524;50.846;4.326;2022-10-19T14:40:25;23.20;55.60
22714;DHT22;11524;50.846;4.326;2022-10-19T14:42:51;23.20;55.50
22714;DHT22;11524;50.846;4.326;2022-10-19T14:45:25;23.20;55.40
22714;DHT22;11524;50.846;4.326;2022-10-19T14:50:24;23.30;55.50
22714;DHT22;11524;50.846;4.326;2022-10-19T14:52:54;23.20;55.30
22714;DHT22;11524;50.846;4.326;2022-10-19T14:55:20;23.20;55.20
22714;DHT22;11524;50.846;4.326;2022-10-19T14:57:48;23.20;55.30
22714;DHT22;11524;50.846;4.326;2022-10-19T15:00:19;23.30;55.50
22714;DHT22;11524;50.846;4.326;2022-10-19T15:03:00;23.20;55.40
22714;DHT22;11524;50.846;4.326;2022-10-19T15:05:31;23.20;55.50
22714;DHT22;11524;50.846;4.326;2022-10-19T15:08:09;23.20;55.50
22714;DHT22;11524;50.846;4.326;2022-10-19T15:10:43;23.20;55.60
22714;DHT22;11524;50.846;4.326;2022-10-19T15:15:44;23.20;55.50
22714;DHT22;11524;50.846;4.326;2022-10-19T15:18:15;23.20;55.40
22714;DHT22;11524;50.846;4.326;2022-10-19T15:20:42;23.20;55.40
22714;DHT22;11524;50.846;4.326;2022-10-19T15:23:37;23.20;55.30
22714;DHT22;11524;50.846;4.326;2022-10-19T15:28:44;23.20;55.10
22714;DHT22;11524;50.846;4.326;2022-10-19T15:31:25;23.20;55.20
22714;DHT22;11524;50.846;4.326;2022-10-19T15:33:59;23.20;55.30
22714;DHT22;11524;50.846;4.326;2022-10-19T15:36:26;23.20;55.40
22714;DHT22;11524;50.846;4.326;2022-10-19T15:39:05;23.20;55.50
22714;DHT22;11524;50.846;4.326;2022-10-19T15:41:34;23.20;55.50
22714;DHT22;11524;50.846;4.326;2022-10-19T15:44:01;23.20;55.40
22714;DHT22;11524;50.846;4.326;2022-10-19T15:46:31;23.10;55.40
22714;DHT22;11524;50.846;4.326;2022-10-19T15:51:51;23.10;55.40
22714;DHT22;11524;50.846;4.326;2022-10-19T15:54:17;23.20;55.40
22714;DHT22;11524;50.846;4.326;2022-10-19T15:56:50;23.10;55.30
22714;DHT22;11524;50.846;4.326;2022-10-19T15:59:18;23.10;55.40
22714;DHT22;11524;50.846;4.326;2022-10-19T16:01:45;23.10;55.20
22714;DHT22;11524;50.846;4.326;2022-10-19T16:04:13;23.10;55.20
22714;DHT22;11524;50.846;4.326;2022-10-19T16:06:40;23.00;55.10
22714;DHT22;11524;50.846;4.326;2022-10-19T16:09:13;23.10;55.20
22714;DHT22;11524;50.846;4.326;2022-10-19T16:11:40;23.10;55.20
22714;DHT22;11524;50.846;4.326;2022-10-19T16:14:05;23.10;55.10
22714;DHT22;11524;50.846;4.326;2022-10-19T16:16:31;23.10;55.20
22714;DHT22;11524;50.846;4.326;2022-10-19T16:18:58;23.10;55.30
22714;DHT22;11524;50.846;4.326;2022-10-19T16:21:27;23.10;55.60
22714;DHT22;11524;50.846;4.326;2022-10-19T16:23:52;23.20;55.70
22714;DHT22;11524;50.846;4.326;2022-10-19T16:26:19;23.10;55.60
22714;DHT22;11524;50.846;4.326;2022-10-19T16:28:45;23.10;55.60
22714;DHT22;11524;50.846;4.326;2022-10-19T16:31:11;23.10;55.50
22714;DHT22;11524;50.846;4.326;2022-10-19T16:33:37;23.10;55.60
22714;DHT22;11524;50.846;4.326;2022-10-19T16:36:04;23.10;55.50
22714;DHT22;11524;50.846;4.326;2022-10-19T16:38:29;23.10;55.50
22714;DHT22;11524;50.846;4.326;2022-10-19T16:41:05;23.10;56.20
22714;DHT22;11524;50.846;4.326;2022-10-19T16:43:31;23.10;55.70
22714;DHT22;11524;50.846;4.326;2022-10-19T16:46:00;23.10;55.80
22714;DHT22;11524;50.846;4.326;2022-10-19T16:48:26;23.10;55.80
22714;DHT22;11524;50.846;4.326;2022-10-19T16:53:31;23.10;55.40
22714;DHT22;11524;50.846;4.326;2022-10-19T16:56:11;23.00;55.30
22714;DHT22;11524;50.846;4.326;2022-10-19T16:58:37;23.00;55.40
22714;DHT22;11524;50.846;4.326;2022-10-19T17:01:15;23.00;55.40
22714;DHT22;11524;50.846;4.326;2022-10-19T17:03:42;23.00;55.30
22714;DHT22;11524;50.846;4.326;2022-10-19T17:06:08;23.00;55.20
22714;DHT22;11524;50.846;4.326;2022-10-19T17:08:35;22.90;55.20
22714;DHT22;11524;50.846;4.326;2022-10-19T17:13:40;22.90;55.40
22714;DHT22;11524;50.846;4.326;2022-10-19T17:16:07;22.90;55.40
22714;DHT22;11524;50.846;4.326;2022-10-19T17:18:33;22.90;55.40
22714;DHT22;11524;50.846;4.326;2022-10-19T17:21:07;22.90;55.50
22714;DHT22;11524;50.846;4.326;2022-10-19T17:23:34;22.80;55.40
22714;DHT22;11524;50.846;4.326;2022-10-19T17:25:59;22.90;55.50
22714;DHT22;11524;50.846;4.326;2022-10-19T17:28:25;22.80;55.50
22714;DHT22;11524;50.846;4.326;2022-10-19T17:30:51;22.80;55.50
22714;DHT22;11524;50.846;4.326;2022-10-19T17:33:18;22.80;55.50
22714;DHT22;11524;50.846;4.326;2022-10-19T17:35:44;22.80;55.60
22714;DHT22;11524;50.846;4.326;2022-10-19T17:38:10;22.80;55.50
22714;DHT22;11524;50.846;4.326;2022-10-19T17:40:35;22.80;55.60
22714;DHT22;11524;50.846;4.326;2022-10-19T17:43:01;22.80;55.50
22714;DHT22;11524;50.846;4.326;2022-10-19T17:45:26;22.80;55.60
22714;DHT22;11524;50.846;4.326;2022-10-19T17:47:52;22.70;55.50
22714;DHT22;11524;50.846;4.326;2022-10-19T17:50:18;22.80;55.60
22714;DHT22;11524;50.846;4.326;2022-10-19T17:52:43;22.70;55.50
22714;DHT22;11524;50.846;4.326;2022-10-19T17:55:09;22.80;55.60
22714;DHT22;11524;50.846;4.326;2022-10-19T17:57:36;22.80;55.50
22714;DHT22;11524;50.846;4.326;2022-10-19T18:00:01;22.80;55.50
22714;DHT22;11524;50.846;4.326;2022-10-19T18:02:27;22.80;55.60
22714;DHT22;11524;50.846;4.326;2022-10-19T18:04:53;22.70;55.60
22714;DHT22;11524;50.846;4.326;2022-10-19T18:07:18;22.70;55.40
22714;DHT22;11524;50.846;4.326;2022-10-19T18:09:46;22.70;55.40
22714;DHT22;11524;50.846;4.326;2022-10-19T18:12:12;22.70;55.40
22714;DHT22;11524;50.846;4.326;2022-10-19T18:14:38;22.80;55.40
22714;DHT22;11524;50.846;4.326;2022-10-19T18:17:05;22.70;55.40
22714;DHT22;11524;50.846;4.326;2022-10-19T18:19:30;22.70;55.40
22714;DHT22;11524;50.846;4.326;2022-10-19T18:21:56;22.70;55.40